MSC Jenny — CQDA — position and weather

sailwx.info

Track history (hours):
 
Tides and Currents Weather Stations Pressure Air Temp Water Temp Dewpoint Dewpoint Depression Visibility Wind Speed Wind Dir Waves Ship Positions

MSC Jenny

Last reported at 2017-Oct-18 22:24 UTC. Time now 2017-Oct-19 11:17 UTC.
Position N 37°13' E 025°50'.

; draft 9.4 m.

Type: Cargo ship. MMSI: 255805777.

Date/timePositionNaut miles runAvg speedWind from/ knotsBaromVisibWave heightAir tempDewpointWater temp
2017-Oct-18 22:24N 37°13' E 025°50'513.0
2017-Oct-18 22:01N 37°17' E 025°46'612.1
2017-Oct-18 21:31N 37°22' E 025°44'713.3
2017-Oct-18 20:59N 37°29' E 025°44'613.1
2017-Oct-18 20:31N 37°36' E 025°44'713.3
2017-Oct-18 20:01N 37°42' E 025°44'116 3.6
2017-Oct-17 12:03N 39°38' E 025°42'115.1
2017-Oct-17 11:59N 39°39' E 025°42'1114.7
2017-Oct-17 11:14N 39°50' E 025°43'515.1
2017-Oct-17 10:55N 39°53' E 025°48'615.5
2017-Oct-17 10:30N 39°57' E 025°55'815.2
2017-Oct-17 09:59N 40°01' E 026°04'4013.1
2017-Oct-17 06:54N 40°26' E 026°44'815.8
2017-Oct-17 06:24N 40°29' E 026°54'9713.2
2017-Oct-16 23:01N 40°26' E 029°02'3 0.1
2017-Oct-16 03:51N 40°26' E 029°05'2 4.3
2017-Oct-16 03:30N 40°26' E 029°03'17 5.2
2017-Oct-16 00:11N 40°43' E 028°56'213.1
2017-Oct-16 00:00N 40°43' E 028°59'713.4
2017-Oct-15 23:30N 40°44' E 029°08'713.0
2017-Oct-15 23:00N 40°44' E 029°16'511.1
2017-Oct-15 22:30N 40°45' E 029°24'612.1
2017-Oct-15 22:01N 40°46' E 029°31'1 0.1
2017-Oct-15 16:21N 40°46' E 029°32'0 0.0
2017-Oct-15 15:51N 40°46' E 029°32'0 0.0
2017-Oct-15 15:31N 40°46' E 029°32'1 1.4
2017-Oct-15 14:59N 40°45' E 029°31'9 8.8
2017-Oct-15 14:00N 40°43' E 029°20'2 4.9
2017-Oct-15 13:31N 40°43' E 029°17'4 7.2
2017-Oct-15 13:01N 40°43' E 029°12'4 8.4
2017-Oct-15 12:31N 40°43' E 029°07'5 9.9
2017-Oct-15 12:00N 40°43' E 029°00'812.8
2017-Oct-15 11:23N 40°46' E 028°50'513.2
2017-Oct-15 10:59N 40°47' E 028°44'510.0
2017-Oct-15 10:30N 40°51' E 028°40'11 0.9
2017-Oct-14 22:21N 40°56' E 028°54'411.9
2017-Oct-14 22:00N 40°58' E 028°59'41210.1
2017-Oct-13 05:22N 44°19' E 037°08'513.4
2017-Oct-13 05:00N 44°21' E 037°14'713.5
2017-Oct-13 04:30N 44°24' E 037°23'713.7
2017-Oct-13 04:00N 44°28' E 037°31'713.7
2017-Oct-13 03:30N 44°31' E 037°39'713.4
2017-Oct-13 03:00N 44°35' E 037°46'510.9
2017-Oct-13 02:30N 44°40' E 037°51'4 8.4
2017-Oct-13 02:00N 44°43' E 037°48'1 1.7
2017-Oct-13 01:30N 44°44' E 037°47'0 0.0
2017-Oct-13 00:58N 44°44' E 037°47'0 0.0
2017-Oct-13 00:28N 44°44' E 037°47'0 0.0
2017-Oct-12 23:58N 44°44' E 037°47'0 0.0
2017-Oct-12 23:28N 44°44' E 037°47'0 0.0
2017-Oct-12 22:58N 44°44' E 037°47'0 0.0
2017-Oct-12 22:28N 44°44' E 037°47'0 0.0
2017-Oct-12 21:58N 44°44' E 037°47'0 0.0
2017-Oct-12 21:28N 44°44' E 037°47'0 0.0
2017-Oct-12 20:58N 44°44' E 037°47'0 0.0
2017-Oct-12 20:28N 44°44' E 037°47'0 0.0
2017-Oct-12 19:58N 44°44' E 037°47'0 0.0
2017-Oct-12 19:28N 44°44' E 037°47'0 0.0
2017-Oct-12 18:58N 44°44' E 037°47'0 0.0
2017-Oct-12 18:28N 44°44' E 037°47'0 0.0
2017-Oct-12 17:58N 44°44' E 037°47'0 0.0
2017-Oct-12 17:28N 44°44' E 037°47'0 0.0
2017-Oct-12 16:58N 44°44' E 037°47'0 0.0
2017-Oct-12 16:28N 44°44' E 037°47'0 0.0
2017-Oct-12 15:58N 44°44' E 037°47'0 0.0
2017-Oct-12 15:28N 44°44' E 037°47'0 0.0
2017-Oct-12 14:58N 44°44' E 037°47'0 0.0
2017-Oct-12 14:25N 44°44' E 037°47'0 0.0
2017-Oct-12 13:58N 44°44' E 037°47'0 0.0
2017-Oct-12 13:28N 44°44' E 037°47'0 0.0
2017-Oct-12 13:00N 44°44' E 037°47'1 1.2
2017-Oct-12 12:30N 44°44' E 037°48'2 3.8
2017-Oct-12 12:00N 44°42' E 037°49'4 8.1
2017-Oct-12 11:30N 44°38' E 037°51'4 8.6
2017-Oct-12 11:00N 44°34' E 037°51'2 3.7
2017-Oct-12 10:30N 44°32' E 037°51'4 7.9
2017-Oct-12 10:00N 44°29' E 037°47'510.1
2017-Oct-12 09:30N 44°27' E 037°41'510.9
2017-Oct-12 09:00N 44°24' E 037°34'1 2.4
2017-Oct-12 08:30N 44°24' E 037°32'1 1.2
2017-Oct-12 08:00N 44°23' E 037°33'1 1.2
2017-Oct-12 07:30N 44°23' E 037°34'1 1.2
2017-Oct-12 07:00N 44°23' E 037°35'1 1.2
2017-Oct-12 06:30N 44°23' E 037°36'1 1.3
2017-Oct-12 06:00N 44°23' E 037°37'1 1.5
2017-Oct-12 05:30N 44°23' E 037°38'1 1.6
2017-Oct-12 05:00N 44°23' E 037°39'1 1.6
2017-Oct-12 04:30N 44°23' E 037°40'1 1.5
2017-Oct-12 04:00N 44°23' E 037°41'1 1.4
2017-Oct-12 03:30N 44°23' E 037°42'1 1.3
2017-Oct-12 03:00N 44°23' E 037°43'1 1.1
2017-Oct-12 02:30N 44°23' E 037°44'0 0.7
2017-Oct-12 02:00N 44°23' E 037°44'1 1.2
2017-Oct-12 01:30N 44°23' E 037°45'1 1.1
2017-Oct-12 00:59N 44°23' E 037°46'1 1.1
2017-Oct-12 00:30N 44°23' E 037°46'1 1.1
2017-Oct-12 00:00N 44°22' E 037°47'1 1.1
2017-Oct-11 23:30N 44°22' E 037°48'1 1.2
2017-Oct-11 23:00N 44°22' E 037°48'1 1.1
2017-Oct-11 22:30N 44°21' E 037°49'0 1.0
2017-Oct-11 22:00N 44°21' E 037°50'0 0.9
2017-Oct-11 21:30N 44°21' E 037°50'0 0.8
2017-Oct-11 21:00N 44°21' E 037°50'0 0.6
2017-Oct-11 20:28N 44°21' E 037°51'0 0.3
2017-Oct-11 20:00N 44°21' E 037°51'2 4.9
2017-Oct-11 19:30N 44°22' E 037°48'712.5
2017-Oct-11 18:57N 44°26' E 037°40'511.0
2017-Oct-11 18:30N 44°28' E 037°34'1 1.3
2017-Oct-11 18:00N 44°29' E 037°33'1 1.5
2017-Oct-11 17:30N 44°28' E 037°34'1 1.6
2017-Oct-11 17:00N 44°28' E 037°35'8 0.5
2017-Oct-10 23:59N 44°19' E 037°34'0 0.5
2017-Oct-10 23:30N 44°19' E 037°34'0 0.4
2017-Oct-10 23:00N 44°19' E 037°34'0 0.6
2017-Oct-10 22:30N 44°19' E 037°35'0 0.7
2017-Oct-10 22:00N 44°19' E 037°35'0 0.8
2017-Oct-10 21:29N 44°19' E 037°36'0 1.0
2017-Oct-10 21:00N 44°19' E 037°36'0 1.0
2017-Oct-10 20:30N 44°19' E 037°37'1 1.2
2017-Oct-10 19:59N 44°19' E 037°38'1 1.2
2017-Oct-10 19:30N 44°20' E 037°39'1 1.1
2017-Oct-10 19:00N 44°20' E 037°39'1 1.1
2017-Oct-10 18:18N 44°20' E 037°41'0 1.2
2017-Oct-10 18:00N 44°20' E 037°41'1 1.2
2017-Oct-10 17:30N 44°20' E 037°42'1 1.1
2017-Oct-10 17:00N 44°20' E 037°43'1 1.1
2017-Oct-10 16:30N 44°20' E 037°43'1 1.2
2017-Oct-10 16:00N 44°20' E 037°44'1 1.2
2017-Oct-10 15:29N 44°20' E 037°45'1 1.1
2017-Oct-10 15:00N 44°20' E 037°46'2 1.8
2017-Oct-10 14:00N 44°20' E 037°43'612.1
2017-Oct-10 13:30N 44°24' E 037°36'612.0
2017-Oct-10 13:00N 44°28' E 037°30'510.8
2017-Oct-10 12:30N 44°31' E 037°24'0 0.5
2017-Oct-10 12:00N 44°31' E 037°24'0 0.8
2017-Oct-10 11:30N 44°31' E 037°25'0 0.8
2017-Oct-10 10:59N 44°31' E 037°25'0 0.7
2017-Oct-10 10:30N 44°31' E 037°26'0 0.7
2017-Oct-10 10:00N 44°31' E 037°26'0 0.8
2017-Oct-10 09:30N 44°30' E 037°27'0 0.8
2017-Oct-10 09:00N 44°30' E 037°27'0 0.9
2017-Oct-10 08:30N 44°30' E 037°28'0 1.0
2017-Oct-10 08:00N 44°30' E 037°28'1 1.1
2017-Oct-10 07:30N 44°29' E 037°29'1 1.3
2017-Oct-10 07:00N 44°29' E 037°30'1 1.4
2017-Oct-10 06:30N 44°28' E 037°30'1 1.4
2017-Oct-10 06:00N 44°28' E 037°31'1 1.5
2017-Oct-10 05:30N 44°27' E 037°32'1 1.5
2017-Oct-10 05:00N 44°27' E 037°33'1 1.5
2017-Oct-10 04:30N 44°27' E 037°34'1 1.5
2017-Oct-10 04:00N 44°26' E 037°34'1 1.4
2017-Oct-10 03:30N 44°26' E 037°35'1 1.3
2017-Oct-10 03:00N 44°25' E 037°36'1 1.4
2017-Oct-10 02:30N 44°25' E 037°37'1 1.4
2017-Oct-10 02:00N 44°25' E 037°38'1 1.4
2017-Oct-10 01:30N 44°24' E 037°38'1 1.4
2017-Oct-10 01:00N 44°24' E 037°39'1 1.4
2017-Oct-10 00:30N 44°23' E 037°40'1 1.4
2017-Oct-10 00:00N 44°23' E 037°41'1 1.4
2017-Oct-09 23:30N 44°23' E 037°42'1 1.4
2017-Oct-09 23:00N 44°22' E 037°43'1 1.4
2017-Oct-09 22:30N 44°22' E 037°44'1 1.3
2017-Oct-09 22:00N 44°22' E 037°44'1 1.2
2017-Oct-09 21:30N 44°22' E 037°45'1 1.0
2017-Oct-09 21:00N 44°22' E 037°46'1 1.0
2017-Oct-09 20:30N 44°22' E 037°47'1 1.1
2017-Oct-09 20:00N 44°22' E 037°47'0 0.9
2017-Oct-09 19:30N 44°21' E 037°48'0 0.9
2017-Oct-09 19:00N 44°21' E 037°49'0 0.5
2017-Oct-09 18:30N 44°21' E 037°49'1 1.0
2017-Oct-09 18:00N 44°21' E 037°49'2 3.7
2017-Oct-09 17:30N 44°20' E 037°46'510.3
2017-Oct-09 17:00N 44°18' E 037°40'713.1
2017-Oct-09 16:30N 44°15' E 037°31'  
Track history (hours):
 
Tides and Currents Weather Stations Pressure Air Temp Water Temp Dewpoint Dewpoint Depression Visibility Wind Speed Wind Dir Waves Ship Positions

MSC Jenny

Last reported at 2017-Oct-18 22:24 UTC. Time now 2017-Oct-19 11:17 UTC.
Position N 37°13' E 025°50'.

; draft 9.4 m.

Type: Cargo ship. MMSI: 255805777.

Date/timePositionNaut miles runAvg speedWind from/ knotsBaromVisibWave heightAir tempDewpointWater temp
2017-Oct-18 22:24N 37°13' E 025°50'513.0
2017-Oct-18 22:01N 37°17' E 025°46'612.1
2017-Oct-18 21:31N 37°22' E 025°44'713.3
2017-Oct-18 20:59N 37°29' E 025°44'613.1
2017-Oct-18 20:31N 37°36' E 025°44'713.3
2017-Oct-18 20:01N 37°42' E 025°44'116 3.6
2017-Oct-17 12:03N 39°38' E 025°42'115.1
2017-Oct-17 11:59N 39°39' E 025°42'1114.7
2017-Oct-17 11:14N 39°50' E 025°43'515.1
2017-Oct-17 10:55N 39°53' E 025°48'615.5
2017-Oct-17 10:30N 39°57' E 025°55'815.2
2017-Oct-17 09:59N 40°01' E 026°04'4013.1
2017-Oct-17 06:54N 40°26' E 026°44'815.8
2017-Oct-17 06:24N 40°29' E 026°54'9713.2
2017-Oct-16 23:01N 40°26' E 029°02'3 0.1
2017-Oct-16 03:51N 40°26' E 029°05'2 4.3
2017-Oct-16 03:30N 40°26' E 029°03'17 5.2
2017-Oct-16 00:11N 40°43' E 028°56'213.1
2017-Oct-16 00:00N 40°43' E 028°59'713.4
2017-Oct-15 23:30N 40°44' E 029°08'713.0
2017-Oct-15 23:00N 40°44' E 029°16'511.1
2017-Oct-15 22:30N 40°45' E 029°24'612.1
2017-Oct-15 22:01N 40°46' E 029°31'1 0.1
2017-Oct-15 16:21N 40°46' E 029°32'0 0.0
2017-Oct-15 15:51N 40°46' E 029°32'0 0.0
2017-Oct-15 15:31N 40°46' E 029°32'1 1.4
2017-Oct-15 14:59N 40°45' E 029°31'9 8.8
2017-Oct-15 14:00N 40°43' E 029°20'2 4.9
2017-Oct-15 13:31N 40°43' E 029°17'4 7.2
2017-Oct-15 13:01N 40°43' E 029°12'4 8.4
2017-Oct-15 12:31N 40°43' E 029°07'5 9.9
2017-Oct-15 12:00N 40°43' E 029°00'812.8
2017-Oct-15 11:23N 40°46' E 028°50'513.2
2017-Oct-15 10:59N 40°47' E 028°44'510.0
2017-Oct-15 10:30N 40°51' E 028°40'11 0.9
2017-Oct-14 22:21N 40°56' E 028°54'411.9
2017-Oct-14 22:00N 40°58' E 028°59'41210.1
2017-Oct-13 05:22N 44°19' E 037°08'513.4
2017-Oct-13 05:00N 44°21' E 037°14'713.5
2017-Oct-13 04:30N 44°24' E 037°23'713.7
2017-Oct-13 04:00N 44°28' E 037°31'713.7
2017-Oct-13 03:30N 44°31' E 037°39'713.4
2017-Oct-13 03:00N 44°35' E 037°46'510.9
2017-Oct-13 02:30N 44°40' E 037°51'4 8.4
2017-Oct-13 02:00N 44°43' E 037°48'1 1.7
2017-Oct-13 01:30N 44°44' E 037°47'0 0.0
2017-Oct-13 00:58N 44°44' E 037°47'0 0.0
2017-Oct-13 00:28N 44°44' E 037°47'0 0.0
2017-Oct-12 23:58N 44°44' E 037°47'0 0.0
2017-Oct-12 23:28N 44°44' E 037°47'0 0.0
2017-Oct-12 22:58N 44°44' E 037°47'0 0.0
2017-Oct-12 22:28N 44°44' E 037°47'0 0.0
2017-Oct-12 21:58N 44°44' E 037°47'0 0.0
2017-Oct-12 21:28N 44°44' E 037°47'0 0.0
2017-Oct-12 20:58N 44°44' E 037°47'0 0.0
2017-Oct-12 20:28N 44°44' E 037°47'0 0.0
2017-Oct-12 19:58N 44°44' E 037°47'0 0.0
2017-Oct-12 19:28N 44°44' E 037°47'0 0.0
2017-Oct-12 18:58N 44°44' E 037°47'0 0.0
2017-Oct-12 18:28N 44°44' E 037°47'0 0.0
2017-Oct-12 17:58N 44°44' E 037°47'0 0.0
2017-Oct-12 17:28N 44°44' E 037°47'0 0.0
2017-Oct-12 16:58N 44°44' E 037°47'0 0.0
2017-Oct-12 16:28N 44°44' E 037°47'0 0.0
2017-Oct-12 15:58N 44°44' E 037°47'0 0.0
2017-Oct-12 15:28N 44°44' E 037°47'0 0.0
2017-Oct-12 14:58N 44°44' E 037°47'0 0.0
2017-Oct-12 14:25N 44°44' E 037°47'0 0.0
2017-Oct-12 13:58N 44°44' E 037°47'0 0.0
2017-Oct-12 13:28N 44°44' E 037°47'0 0.0
2017-Oct-12 13:00N 44°44' E 037°47'1 1.2
2017-Oct-12 12:30N 44°44' E 037°48'2 3.8
2017-Oct-12 12:00N 44°42' E 037°49'4 8.1
2017-Oct-12 11:30N 44°38' E 037°51'4 8.6
2017-Oct-12 11:00N 44°34' E 037°51'2 3.7
2017-Oct-12 10:30N 44°32' E 037°51'4 7.9
2017-Oct-12 10:00N 44°29' E 037°47'510.1
2017-Oct-12 09:30N 44°27' E 037°41'510.9
2017-Oct-12 09:00N 44°24' E 037°34'1 2.4
2017-Oct-12 08:30N 44°24' E 037°32'1 1.2
2017-Oct-12 08:00N 44°23' E 037°33'1 1.2
2017-Oct-12 07:30N 44°23' E 037°34'1 1.2
2017-Oct-12 07:00N 44°23' E 037°35'1 1.2
2017-Oct-12 06:30N 44°23' E 037°36'1 1.3
2017-Oct-12 06:00N 44°23' E 037°37'1 1.5
2017-Oct-12 05:30N 44°23' E 037°38'1 1.6
2017-Oct-12 05:00N 44°23' E 037°39'1 1.6
2017-Oct-12 04:30N 44°23' E 037°40'1 1.5
2017-Oct-12 04:00N 44°23' E 037°41'1 1.4
2017-Oct-12 03:30N 44°23' E 037°42'1 1.3
2017-Oct-12 03:00N 44°23' E 037°43'1 1.1
2017-Oct-12 02:30N 44°23' E 037°44'0 0.7
2017-Oct-12 02:00N 44°23' E 037°44'1 1.2
2017-Oct-12 01:30N 44°23' E 037°45'1 1.1
2017-Oct-12 00:59N 44°23' E 037°46'1 1.1
2017-Oct-12 00:30N 44°23' E 037°46'1 1.1
2017-Oct-12 00:00N 44°22' E 037°47'1 1.1
2017-Oct-11 23:30N 44°22' E 037°48'1 1.2
2017-Oct-11 23:00N 44°22' E 037°48'1 1.1
2017-Oct-11 22:30N 44°21' E 037°49'0 1.0
2017-Oct-11 22:00N 44°21' E 037°50'0 0.9
2017-Oct-11 21:30N 44°21' E 037°50'0 0.8
2017-Oct-11 21:00N 44°21' E 037°50'0 0.6
2017-Oct-11 20:28N 44°21' E 037°51'0 0.3
2017-Oct-11 20:00N 44°21' E 037°51'2 4.9
2017-Oct-11 19:30N 44°22' E 037°48'712.5
2017-Oct-11 18:57N 44°26' E 037°40'511.0
2017-Oct-11 18:30N 44°28' E 037°34'1 1.3
2017-Oct-11 18:00N 44°29' E 037°33'1 1.5
2017-Oct-11 17:30N 44°28' E 037°34'1 1.6
2017-Oct-11 17:00N 44°28' E 037°35'8 0.5
2017-Oct-10 23:59N 44°19' E 037°34'0 0.5
2017-Oct-10 23:30N 44°19' E 037°34'0 0.4
2017-Oct-10 23:00N 44°19' E 037°34'0 0.6
2017-Oct-10 22:30N 44°19' E 037°35'0 0.7
2017-Oct-10 22:00N 44°19' E 037°35'0 0.8
2017-Oct-10 21:29N 44°19' E 037°36'0 1.0
2017-Oct-10 21:00N 44°19' E 037°36'0 1.0
2017-Oct-10 20:30N 44°19' E 037°37'1 1.2
2017-Oct-10 19:59N 44°19' E 037°38'1 1.2
2017-Oct-10 19:30N 44°20' E 037°39'1 1.1
2017-Oct-10 19:00N 44°20' E 037°39'1 1.1
2017-Oct-10 18:18N 44°20' E 037°41'0 1.2
2017-Oct-10 18:00N 44°20' E 037°41'1 1.2
2017-Oct-10 17:30N 44°20' E 037°42'1 1.1
2017-Oct-10 17:00N 44°20' E 037°43'1 1.1
2017-Oct-10 16:30N 44°20' E 037°43'1 1.2
2017-Oct-10 16:00N 44°20' E 037°44'1 1.2
2017-Oct-10 15:29N 44°20' E 037°45'1 1.1
2017-Oct-10 15:00N 44°20' E 037°46'2 1.8
2017-Oct-10 14:00N 44°20' E 037°43'612.1
2017-Oct-10 13:30N 44°24' E 037°36'612.0
2017-Oct-10 13:00N 44°28' E 037°30'510.8
2017-Oct-10 12:30N 44°31' E 037°24'0 0.5
2017-Oct-10 12:00N 44°31' E 037°24'0 0.8
2017-Oct-10 11:30N 44°31' E 037°25'0 0.8
2017-Oct-10 10:59N 44°31' E 037°25'0 0.7
2017-Oct-10 10:30N 44°31' E 037°26'0 0.7
2017-Oct-10 10:00N 44°31' E 037°26'0 0.8
2017-Oct-10 09:30N 44°30' E 037°27'0 0.8
2017-Oct-10 09:00N 44°30' E 037°27'0 0.9
2017-Oct-10 08:30N 44°30' E 037°28'0 1.0
2017-Oct-10 08:00N 44°30' E 037°28'1 1.1
2017-Oct-10 07:30N 44°29' E 037°29'1 1.3
2017-Oct-10 07:00N 44°29' E 037°30'1 1.4
2017-Oct-10 06:30N 44°28' E 037°30'1 1.4
2017-Oct-10 06:00N 44°28' E 037°31'1 1.5
2017-Oct-10 05:30N 44°27' E 037°32'1 1.5
2017-Oct-10 05:00N 44°27' E 037°33'1 1.5
2017-Oct-10 04:30N 44°27' E 037°34'1 1.5
2017-Oct-10 04:00N 44°26' E 037°34'1 1.4
2017-Oct-10 03:30N 44°26' E 037°35'1 1.3
2017-Oct-10 03:00N 44°25' E 037°36'1 1.4
2017-Oct-10 02:30N 44°25' E 037°37'1 1.4
2017-Oct-10 02:00N 44°25' E 037°38'1 1.4
2017-Oct-10 01:30N 44°24' E 037°38'1 1.4
2017-Oct-10 01:00N 44°24' E 037°39'1 1.4
2017-Oct-10 00:30N 44°23' E 037°40'1 1.4
2017-Oct-10 00:00N 44°23' E 037°41'1 1.4
2017-Oct-09 23:30N 44°23' E 037°42'1 1.4
2017-Oct-09 23:00N 44°22' E 037°43'1 1.4
2017-Oct-09 22:30N 44°22' E 037°44'1 1.3
2017-Oct-09 22:00N 44°22' E 037°44'1 1.2
2017-Oct-09 21:30N 44°22' E 037°45'1 1.0
2017-Oct-09 21:00N 44°22' E 037°46'1 1.0
2017-Oct-09 20:30N 44°22' E 037°47'1 1.1
2017-Oct-09 20:00N 44°22' E 037°47'0 0.9
2017-Oct-09 19:30N 44°21' E 037°48'0 0.9
2017-Oct-09 19:00N 44°21' E 037°49'0 0.5
2017-Oct-09 18:30N 44°21' E 037°49'1 1.0
2017-Oct-09 18:00N 44°21' E 037°49'2 3.7
2017-Oct-09 17:30N 44°20' E 037°46'510.3
2017-Oct-09 17:00N 44°18' E 037°40'713.1
2017-Oct-09 16:30N 44°15' E 037°31'  

Dump ship's entire track history